createdAt,value
2018-08-25T00:01:58.273Z,16.10
2018-08-25T00:04:33.314Z,16.07
2018-08-25T00:07:08.358Z,16.06
2018-08-25T00:09:43.172Z,16.08
2018-08-25T00:12:17.732Z,16.03
2018-08-25T00:14:52.141Z,16.04
2018-08-25T00:17:26.735Z,15.95
2018-08-25T00:20:01.884Z,15.93
2018-08-25T00:22:36.570Z,15.81
2018-08-25T00:25:11.894Z,15.79
2018-08-25T00:27:46.648Z,15.87
2018-08-25T00:30:26.474Z,15.89
2018-08-25T00:33:00.982Z,15.98
2018-08-25T00:35:35.327Z,15.94
2018-08-25T00:38:10.146Z,15.90
2018-08-25T00:40:45.422Z,15.86
2018-08-25T00:43:20.380Z,15.86
2018-08-25T00:45:54.716Z,15.84
2018-08-25T00:48:29.266Z,15.86
2018-08-25T00:51:04.317Z,15.81
2018-08-25T00:53:38.978Z,15.81
2018-08-25T00:56:14.048Z,15.86
2018-08-25T00:58:48.752Z,15.81
2018-08-25T01:01:23.187Z,15.79
2018-08-25T01:03:58.460Z,15.78
2018-08-25T01:06:33.038Z,15.78
2018-08-25T01:09:09.123Z,15.76
2018-08-25T01:11:43.791Z,15.71
2018-08-25T01:14:18.720Z,15.75
2018-08-25T01:16:53.198Z,15.83
2018-08-25T01:19:28.219Z,15.81
2018-08-25T01:22:02.859Z,15.78
2018-08-25T01:24:37.692Z,15.78
2018-08-25T01:27:12.316Z,15.78
2018-08-25T01:29:46.840Z,15.73
2018-08-25T01:32:21.280Z,15.75
2018-08-25T01:34:56.004Z,15.76
2018-08-25T01:37:30.597Z,15.77
2018-08-25T01:40:05.657Z,15.73
2018-08-25T01:42:40.468Z,15.73
2018-08-25T01:45:14.840Z,15.72
2018-08-25T01:47:49.296Z,15.70
2018-08-25T01:50:23.700Z,15.68
2018-08-25T01:52:58.124Z,15.63
2018-08-25T01:55:32.747Z,15.66
2018-08-25T01:58:08.015Z,15.70
2018-08-25T02:00:42.612Z,15.70
2018-08-25T02:03:17.127Z,15.67
2018-08-25T02:05:51.451Z,15.69
2018-08-25T02:08:25.803Z,15.74
2018-08-25T02:11:00.590Z,15.73
2018-08-25T02:13:35.027Z,15.74
2018-08-25T02:16:09.835Z,15.79
2018-08-25T02:18:44.527Z,15.76
2018-08-25T02:21:19.627Z,15.74
2018-08-25T02:23:53.934Z,15.69
2018-08-25T02:26:28.479Z,15.71
2018-08-25T02:29:03.323Z,15.76
2018-08-25T02:31:37.752Z,15.73
2018-08-25T02:34:12.663Z,15.70
2018-08-25T02:36:47.757Z,15.71
2018-08-25T02:39:22.419Z,15.71
2018-08-25T02:41:56.824Z,15.76
2018-08-25T02:44:31.403Z,15.75
2018-08-25T02:47:05.902Z,15.75
2018-08-25T02:49:40.629Z,15.70
2018-08-25T02:52:15.575Z,15.73
2018-08-25T02:54:50.050Z,15.67
2018-08-25T02:57:24.567Z,15.70
2018-08-25T02:59:59.484Z,15.65
2018-08-25T03:02:33.991Z,15.63
2018-08-25T03:05:08.677Z,15.60
2018-08-25T03:07:43.880Z,15.60
2018-08-25T03:10:18.560Z,15.58
2018-08-25T03:12:52.942Z,15.67
2018-08-25T03:15:27.228Z,15.65
2018-08-25T03:18:01.912Z,15.67
2018-08-25T03:20:36.893Z,15.69
2018-08-25T03:23:11.279Z,15.65
2018-08-25T03:25:46.248Z,15.57
2018-08-25T03:28:20.794Z,15.60
2018-08-25T03:30:55.248Z,15.63
2018-08-25T03:33:29.640Z,15.61
2018-08-25T03:36:04.251Z,15.61
2018-08-25T03:38:38.966Z,15.56
2018-08-25T03:41:13.536Z,15.46
2018-08-25T03:43:47.969Z,15.52
2018-08-25T03:46:22.707Z,15.65
2018-08-25T03:48:57.216Z,15.58
2018-08-25T03:51:31.972Z,15.60
2018-08-25T03:54:06.971Z,15.59
2018-08-25T03:56:41.984Z,15.59
2018-08-25T03:59:16.618Z,15.59
2018-08-25T04:01:51.283Z,15.53
2018-08-25T04:04:25.791Z,15.59
2018-08-25T04:07:00.669Z,15.46
2018-08-25T04:09:35.047Z,15.50
2018-08-25T04:12:09.761Z,15.57
2018-08-25T04:14:44.942Z,15.53
2018-08-25T04:17:19.953Z,15.60
2018-08-25T04:19:54.695Z,15.48
2018-08-25T04:22:29.603Z,15.48
2018-08-25T04:25:04.773Z,15.46
2018-08-25T04:27:39.106Z,15.51
2018-08-25T04:30:13.492Z,15.43
2018-08-25T04:32:48.272Z,15.46
2018-08-25T04:35:22.924Z,15.46
2018-08-25T04:37:57.516Z,15.45
2018-08-25T04:40:32.340Z,15.45
2018-08-25T04:43:07.216Z,15.46
2018-08-25T04:45:41.872Z,15.49
2018-08-25T04:48:16.160Z,15.47
2018-08-25T04:50:50.767Z,15.48
2018-08-25T04:53:25.336Z,15.46
2018-08-25T04:56:00.404Z,15.41
2018-08-25T04:58:35.251Z,15.45
2018-08-25T05:01:09.831Z,15.46
2018-08-25T05:03:44.384Z,15.54
2018-08-25T05:06:19.419Z,15.53
2018-08-25T05:08:54.339Z,15.53
2018-08-25T05:11:28.621Z,15.54
2018-08-25T05:14:02.953Z,15.60
2018-08-25T05:16:37.301Z,15.59
2018-08-25T05:19:11.631Z,15.67
2018-08-25T05:21:46.396Z,15.72
2018-08-25T05:24:21.721Z,15.71
2018-08-25T05:26:56.428Z,15.82
2018-08-25T05:29:30.808Z,15.80
2018-08-25T05:32:05.668Z,15.83
2018-08-25T05:34:40.323Z,15.85
2018-08-25T05:37:14.932Z,15.89
2018-08-25T05:39:49.740Z,15.94
2018-08-25T05:42:24.204Z,15.82
2018-08-25T05:44:59.051Z,15.82
2018-08-25T05:47:33.532Z,15.80
2018-08-25T05:50:08.494Z,15.80
2018-08-25T05:52:43.500Z,15.78
2018-08-25T05:55:18.916Z,15.77
2018-08-25T05:57:53.487Z,15.71
2018-08-25T06:00:28.484Z,15.61
2018-08-25T06:03:03.211Z,15.65
2018-08-25T06:05:37.576Z,15.67
2018-08-25T06:08:12.053Z,15.69
2018-08-25T06:10:47.179Z,15.77
2018-08-25T06:13:22.012Z,15.86
2018-08-25T06:15:57.188Z,15.82
2018-08-25T06:18:32.240Z,15.85
2018-08-25T06:21:07.127Z,15.92
2018-08-25T06:23:41.431Z,15.96
2018-08-25T06:26:15.982Z,16.04
2018-08-25T06:28:50.723Z,16.11
2018-08-25T06:31:25.601Z,16.16
2018-08-25T06:34:00.364Z,16.23
2018-08-25T06:36:34.987Z,16.39
2018-08-25T06:39:10.683Z,16.55
2018-08-25T06:41:45.239Z,16.67
2018-08-25T06:44:19.824Z,16.84
2018-08-25T06:46:54.947Z,16.99
2018-08-25T06:49:29.249Z,17.06
2018-08-25T06:52:04.239Z,17.19
2018-08-25T06:54:38.808Z,17.17
2018-08-25T06:57:13.168Z,17.21
2018-08-25T06:59:47.959Z,17.23
2018-08-25T07:02:22.580Z,17.36
2018-08-25T07:04:57.376Z,17.43
2018-08-25T07:07:32.317Z,17.52
2018-08-25T07:10:07.451Z,17.58
2018-08-25T07:12:42.275Z,17.69
2018-08-25T07:15:17.116Z,17.81
2018-08-25T07:17:51.619Z,17.86
2018-08-25T07:20:26.197Z,17.94
2018-08-25T07:23:00.615Z,17.86
2018-08-25T07:25:36.121Z,18.01
2018-08-25T07:28:11.093Z,17.96
2018-08-25T07:30:45.789Z,17.99
2018-08-25T07:33:20.356Z,17.63
2018-08-25T07:35:54.832Z,17.65
2018-08-25T07:38:29.336Z,17.91
2018-08-25T07:41:03.641Z,18.15
2018-08-25T07:43:38.628Z,18.28
2018-08-25T07:46:13.325Z,18.39
2018-08-25T07:48:48.215Z,18.50
2018-08-25T07:51:22.678Z,18.47
2018-08-25T07:53:57.536Z,18.61
2018-08-25T07:56:31.952Z,18.62
2018-08-25T07:59:06.771Z,18.66
2018-08-25T08:01:41.475Z,18.80
2018-08-25T08:04:15.971Z,18.93
2018-08-25T08:06:50.761Z,18.97
2018-08-25T08:09:25.490Z,19.07
2018-08-25T08:12:00.774Z,19.02
2018-08-25T08:14:35.715Z,19.07
2018-08-25T08:17:10.119Z,19.11
2018-08-25T08:19:44.487Z,19.02
2018-08-25T08:22:18.975Z,18.80
2018-08-25T08:24:54.228Z,18.72
2018-08-25T08:27:29.048Z,18.73
2018-08-25T08:30:03.642Z,18.88
2018-08-25T08:32:38.408Z,19.13
2018-08-25T08:35:13.524Z,19.29
2018-08-25T08:37:48.171Z,19.47
2018-08-25T08:40:23.186Z,19.51
2018-08-25T08:42:58.332Z,19.61
2018-08-25T08:45:32.726Z,19.71
2018-08-25T08:48:07.732Z,19.72
2018-08-25T08:50:42.261Z,19.91
2018-08-25T08:53:16.942Z,19.35
2018-08-25T08:55:51.664Z,19.42
2018-08-25T08:58:26.687Z,19.52
2018-08-25T09:01:01.232Z,19.39
2018-08-25T09:03:35.987Z,19.46
2018-08-25T09:06:10.616Z,19.63
2018-08-25T09:08:45.115Z,19.62
2018-08-25T09:11:19.614Z,19.56
2018-08-25T09:13:54.564Z,19.61
2018-08-25T09:16:28.851Z,19.43
2018-08-25T09:19:03.905Z,19.31
2018-08-25T09:21:38.270Z,19.16
2018-08-25T09:24:12.745Z,19.33
2018-08-25T09:26:48.104Z,19.53
2018-08-25T09:29:22.635Z,19.64
2018-08-25T09:31:57.476Z,19.67
2018-08-25T09:34:32.572Z,19.62
2018-08-25T09:37:07.297Z,19.65
2018-08-25T09:39:41.944Z,19.34
2018-08-25T09:42:16.517Z,19.45
2018-08-25T09:44:51.059Z,19.63
2018-08-25T09:47:25.607Z,19.86
2018-08-25T09:50:00.024Z,19.97
2018-08-25T09:52:34.936Z,19.73
2018-08-25T09:55:09.550Z,19.64
2018-08-25T09:57:44.524Z,19.63
2018-08-25T10:00:19.156Z,19.69
2018-08-25T10:02:53.936Z,19.79
2018-08-25T10:05:28.956Z,19.76
2018-08-25T10:08:04.034Z,19.66
2018-08-25T10:10:38.423Z,19.57
2018-08-25T10:13:13.317Z,19.69
2018-08-25T10:15:47.752Z,19.87
2018-08-25T10:18:22.638Z,20.07
2018-08-25T10:20:57.211Z,19.90
2018-08-25T10:23:31.743Z,19.82
2018-08-25T10:26:06.608Z,19.74
2018-08-25T10:28:41.524Z,19.68
2018-08-25T10:31:16.412Z,19.67
2018-08-25T10:33:51.406Z,19.66
2018-08-25T10:36:25.771Z,19.72
2018-08-25T10:39:01.434Z,19.46
2018-08-25T10:41:35.987Z,19.56
2018-08-25T10:44:10.658Z,19.77
2018-08-25T10:46:45.063Z,19.82
2018-08-25T10:49:19.720Z,19.61
2018-08-25T10:51:54.483Z,19.47
2018-08-25T10:54:29.524Z,19.51
2018-08-25T10:57:04.250Z,19.40
2018-08-25T10:59:38.682Z,19.34
2018-08-25T11:02:19.751Z,19.16
2018-08-25T11:04:54.907Z,18.94
2018-08-25T11:07:29.504Z,18.85
2018-08-25T11:10:04.148Z,18.85
2018-08-25T11:12:38.699Z,18.80
2018-08-25T11:15:13.741Z,18.97
2018-08-25T11:17:48.855Z,19.07
2018-08-25T11:20:23.948Z,18.99
2018-08-25T11:22:58.391Z,18.95
2018-08-25T11:25:33.392Z,18.84
2018-08-25T11:28:08.339Z,18.74
2018-08-25T11:30:42.644Z,18.71
2018-08-25T11:33:16.892Z,18.81
2018-08-25T11:35:51.995Z,18.95
2018-08-25T11:38:26.431Z,19.20
2018-08-25T11:41:01.368Z,19.53
2018-08-25T11:43:36.235Z,19.89
2018-08-25T11:46:10.915Z,20.35
2018-08-25T11:48:45.231Z,20.74
2018-08-25T11:51:20.031Z,20.91
2018-08-25T11:53:54.629Z,20.91
2018-08-25T11:56:29.269Z,20.81
2018-08-25T11:59:04.023Z,20.51
2018-08-25T12:01:38.919Z,20.33
2018-08-25T12:04:13.812Z,20.18
2018-08-25T12:06:48.208Z,20.27
2018-08-25T12:09:22.676Z,19.98
2018-08-25T12:11:57.592Z,19.87
2018-08-25T12:14:32.719Z,19.78
2018-08-25T12:17:07.171Z,19.64
2018-08-25T12:19:42.210Z,19.73
2018-08-25T12:22:16.835Z,19.50
2018-08-25T12:24:51.380Z,19.04
2018-08-25T12:27:26.199Z,18.95
2018-08-25T12:30:00.588Z,18.87
2018-08-25T12:32:35.293Z,18.74
2018-08-25T12:35:09.584Z,18.83
2018-08-25T12:37:44.452Z,18.96
2018-08-25T12:40:19.723Z,18.69
2018-08-25T12:42:54.305Z,18.58
2018-08-25T12:45:28.739Z,18.65
2018-08-25T12:48:03.535Z,18.79
2018-08-25T12:50:38.567Z,18.92
2018-08-25T12:53:12.926Z,18.78
2018-08-25T12:55:47.531Z,18.48
2018-08-25T12:58:22.267Z,18.29
2018-08-25T13:00:56.899Z,17.82
2018-08-25T13:03:31.420Z,17.47
2018-08-25T13:06:06.856Z,17.07
2018-08-25T13:08:41.947Z,16.62
2018-08-25T13:11:16.684Z,16.60
2018-08-25T13:13:51.327Z,16.25
2018-08-25T13:16:25.732Z,16.05
2018-08-25T13:19:01.506Z,15.98
2018-08-25T13:21:36.179Z,15.93
2018-08-25T13:24:10.573Z,16.00
2018-08-25T13:26:45.392Z,15.96
2018-08-25T13:29:19.879Z,16.06
2018-08-25T13:31:54.473Z,16.04
2018-08-25T13:34:28.836Z,16.12
2018-08-25T13:37:03.797Z,16.06
2018-08-25T13:39:38.366Z,16.00
2018-08-25T13:42:13.083Z,16.10
2018-08-25T13:44:47.429Z,16.00
2018-08-25T13:47:22.088Z,15.95
2018-08-25T13:49:57.317Z,16.03
2018-08-25T13:52:32.183Z,15.95
2018-08-25T13:55:07.343Z,15.65
2018-08-25T13:57:42.021Z,15.39
2018-08-25T14:00:16.848Z,15.11
2018-08-25T14:02:51.352Z,14.88
2018-08-25T14:05:26.672Z,14.92
2018-08-25T14:08:01.144Z,14.77
2018-08-25T14:10:35.995Z,14.85
2018-08-25T14:13:10.719Z,14.98
2018-08-25T14:15:44.971Z,15.05
2018-08-25T14:18:19.737Z,15.27
2018-08-25T14:20:54.705Z,15.28
2018-08-25T14:23:29.432Z,15.21
2018-08-25T14:26:04.131Z,15.18
2018-08-25T14:28:38.404Z,15.37
2018-08-25T14:31:13.019Z,15.52
2018-08-25T14:33:47.924Z,15.69
2018-08-25T14:36:22.675Z,15.81
2018-08-25T14:38:57.303Z,15.90
2018-08-25T14:41:31.748Z,15.84
2018-08-25T14:44:06.776Z,15.58
2018-08-25T14:46:41.720Z,15.50
2018-08-25T14:49:16.495Z,15.58
2018-08-25T14:51:51.495Z,15.67
2018-08-25T14:54:26.337Z,15.69
2018-08-25T14:57:00.875Z,15.65
2018-08-25T14:59:35.383Z,15.68
2018-08-25T15:02:10.231Z,15.63
2018-08-25T15:04:44.935Z,15.49
2018-08-25T15:07:19.775Z,15.33
2018-08-25T15:09:54.171Z,15.24
2018-08-25T15:12:28.612Z,15.07
2018-08-25T15:15:03.143Z,15.01
2018-08-25T15:17:38.243Z,14.94
2018-08-25T15:20:13.211Z,15.00
2018-08-25T15:22:47.704Z,15.04
2018-08-25T15:25:22.268Z,14.96
2018-08-25T15:27:56.692Z,15.06
2018-08-25T15:30:31.476Z,15.03
2018-08-25T15:33:06.239Z,14.95
2018-08-25T15:35:42.334Z,14.88
2018-08-25T15:38:16.786Z,14.92
2018-08-25T15:40:51.319Z,14.91
2018-08-25T15:43:25.873Z,15.06
2018-08-25T15:46:00.279Z,14.96
2018-08-25T15:48:35.219Z,15.01
2018-08-25T15:51:09.583Z,14.97
2018-08-25T15:53:43.868Z,15.05
2018-08-25T15:56:18.332Z,15.09
2018-08-25T15:58:53.151Z,15.11
2018-08-25T16:01:27.707Z,15.09
2018-08-25T16:04:02.455Z,15.13
2018-08-25T16:06:37.146Z,14.87
2018-08-25T16:09:11.963Z,14.83
2018-08-25T16:11:47.287Z,14.86
2018-08-25T16:14:21.920Z,14.86
2018-08-25T16:16:56.912Z,14.84
2018-08-25T16:19:31.474Z,14.81
2018-08-25T16:22:07.060Z,14.82
2018-08-25T16:24:41.853Z,14.74
2018-08-25T16:27:17.009Z,14.69
2018-08-25T16:29:51.615Z,14.71
2018-08-25T16:32:26.366Z,14.79
2018-08-25T16:35:00.837Z,14.76
2018-08-25T16:37:35.562Z,14.75
2018-08-25T16:40:10.317Z,14.73
2018-08-25T16:42:45.719Z,14.70
2018-08-25T16:45:20.752Z,14.56
2018-08-25T16:47:55.643Z,14.51
2018-08-25T16:50:30.264Z,14.54
2018-08-25T16:53:05.776Z,14.50
2018-08-25T16:55:40.606Z,14.50
2018-08-25T16:58:15.120Z,14.45
2018-08-25T17:00:49.592Z,14.52
2018-08-25T17:03:24.462Z,14.48
2018-08-25T17:05:58.916Z,14.50
2018-08-25T17:08:33.631Z,14.45
2018-08-25T17:11:08.928Z,14.36
2018-08-25T17:13:43.416Z,14.29
2018-08-25T17:16:18.452Z,14.30
2018-08-25T17:18:53.316Z,14.29
2018-08-25T17:21:28.072Z,14.23
2018-08-25T17:24:02.359Z,14.18
2018-08-25T17:26:37.312Z,14.24
2018-08-25T17:29:11.939Z,14.30
2018-08-25T17:31:46.675Z,14.19
2018-08-25T17:34:21.076Z,14.14
2018-08-25T17:36:55.520Z,14.07
2018-08-25T17:39:30.315Z,14.01
2018-08-25T17:42:05.516Z,14.03
2018-08-25T17:44:39.904Z,14.16
2018-08-25T17:47:14.195Z,14.14
2018-08-25T17:49:48.701Z,14.05
2018-08-25T17:52:23.139Z,14.05
2018-08-25T17:54:58.003Z,14.06
2018-08-25T17:57:32.916Z,14.10
2018-08-25T18:00:07.976Z,14.07
2018-08-25T18:02:43.086Z,13.99
2018-08-25T18:05:17.848Z,14.02
2018-08-25T18:07:52.391Z,14.01
2018-08-25T18:10:27.308Z,13.95
2018-08-25T18:13:01.672Z,13.94
2018-08-25T18:15:36.859Z,13.92
2018-08-25T18:18:12.111Z,13.83
2018-08-25T18:20:46.917Z,13.87
2018-08-25T18:23:22.075Z,13.79
2018-08-25T18:25:57.207Z,13.81
2018-08-25T18:28:31.720Z,13.72
2018-08-25T18:31:06.192Z,13.76
2018-08-25T18:33:40.715Z,13.74
2018-08-25T18:36:15.488Z,13.69
2018-08-25T18:38:50.898Z,13.67
2018-08-25T18:41:25.796Z,13.63
2018-08-25T18:44:00.829Z,13.60
2018-08-25T18:46:35.367Z,13.61
2018-08-25T18:49:09.871Z,13.52
2018-08-25T18:51:44.959Z,13.56
2018-08-25T18:54:20.279Z,13.61
2018-08-25T18:56:54.896Z,13.56
2018-08-25T18:59:29.595Z,13.51
2018-08-25T19:02:04.393Z,13.57
2018-08-25T19:04:39.403Z,13.53
2018-08-25T19:07:14.436Z,13.47
2018-08-25T19:09:50.307Z,13.53
2018-08-25T19:12:24.970Z,13.54
2018-08-25T19:14:59.336Z,13.58
2018-08-25T19:17:33.698Z,13.56
2018-08-25T19:20:08.244Z,13.57
2018-08-25T19:22:42.768Z,13.66
2018-08-25T19:25:17.842Z,13.63
2018-08-25T19:27:52.301Z,13.57
2018-08-25T19:30:26.705Z,13.57
2018-08-25T19:33:01.975Z,13.55
2018-08-25T19:35:36.947Z,13.61
2018-08-25T19:38:11.879Z,13.65
2018-08-25T19:40:46.668Z,13.65
2018-08-25T19:43:22.015Z,13.62
2018-08-25T19:45:56.428Z,13.57
2018-08-25T19:48:30.884Z,13.58
2018-08-25T19:51:05.207Z,13.56
2018-08-25T19:53:39.835Z,13.53
2018-08-25T19:56:14.459Z,13.58
2018-08-25T19:58:48.939Z,13.54
2018-08-25T20:01:23.299Z,13.57
2018-08-25T20:03:58.150Z,13.60
2018-08-25T20:06:32.976Z,13.55
2018-08-25T20:09:08.075Z,13.58
2018-08-25T20:11:42.723Z,13.59
2018-08-25T20:14:17.331Z,13.69
2018-08-25T20:16:52.136Z,13.66
2018-08-25T20:19:27.207Z,13.67
2018-08-25T20:22:01.692Z,13.69
2018-08-25T20:24:36.171Z,13.61
2018-08-25T20:27:10.946Z,13.58
2018-08-25T20:29:45.854Z,13.57
2018-08-25T20:32:20.524Z,13.61
2018-08-25T20:34:55.124Z,13.68
2018-08-25T20:37:30.056Z,13.63
2018-08-25T20:40:04.823Z,13.62
2018-08-25T20:42:39.608Z,13.60
2018-08-25T20:45:14.032Z,13.67
2018-08-25T20:47:48.686Z,13.59
2018-08-25T20:50:23.140Z,13.61
2018-08-25T20:52:57.798Z,13.65
2018-08-25T20:55:32.169Z,13.54
2018-08-25T20:58:07.048Z,13.50
2018-08-25T21:00:41.858Z,13.42
2018-08-25T21:03:16.615Z,13.45
2018-08-25T21:05:51.300Z,13.44
2018-08-25T21:08:26.722Z,13.47
2018-08-25T21:11:01.005Z,13.47
2018-08-25T21:13:35.823Z,13.44
2018-08-25T21:16:10.455Z,13.39
2018-08-25T21:18:45.834Z,13.44
2018-08-25T21:21:20.734Z,13.32
2018-08-25T21:23:55.303Z,13.18
2018-08-25T21:26:30.152Z,12.90
2018-08-25T21:29:04.519Z,12.80
2018-08-25T21:31:39.022Z,12.62
2018-08-25T21:34:13.462Z,12.65
2018-08-25T21:36:47.899Z,12.65
2018-08-25T21:39:22.217Z,12.77
2018-08-25T21:41:56.979Z,12.68
2018-08-25T21:44:31.533Z,12.56
2018-08-25T21:47:06.207Z,12.60
2018-08-25T21:49:40.764Z,12.53
2018-08-25T21:52:15.421Z,12.68
2018-08-25T21:54:50.483Z,12.71
2018-08-25T21:57:24.975Z,12.63
2018-08-25T21:59:59.381Z,12.63
2018-08-25T22:02:33.764Z,12.64
2018-08-25T22:05:08.592Z,12.63
2018-08-25T22:07:43.777Z,12.59
2018-08-25T22:10:18.161Z,12.52
2018-08-25T22:12:53.111Z,12.54
2018-08-25T22:15:27.619Z,12.56
2018-08-25T22:18:02.071Z,12.60
2018-08-25T22:20:36.740Z,12.69
2018-08-25T22:23:11.411Z,12.70
2018-08-25T22:25:46.176Z,12.70
2018-08-25T22:28:20.611Z,12.72
2018-08-25T22:30:55.221Z,12.82
2018-08-25T22:33:29.789Z,12.70
2018-08-25T22:36:04.752Z,12.64
2018-08-25T22:38:39.140Z,12.57
2018-08-25T22:41:13.496Z,12.58
2018-08-25T22:43:48.114Z,12.55
2018-08-25T22:46:22.856Z,12.50
2018-08-25T22:48:57.567Z,12.50
2018-08-25T22:51:32.241Z,12.50
2018-08-25T22:54:07.917Z,12.49
2018-08-25T22:56:42.525Z,12.44
2018-08-25T22:59:17.000Z,12.45
2018-08-25T23:01:53.270Z,12.43
2018-08-25T23:04:27.755Z,12.45
2018-08-25T23:07:02.271Z,12.47
2018-08-25T23:09:37.295Z,12.52
2018-08-25T23:12:12.038Z,12.48
2018-08-25T23:14:46.853Z,12.50
2018-08-25T23:17:21.843Z,12.48
2018-08-25T23:19:57.329Z,12.51
2018-08-25T23:22:32.279Z,12.50
2018-08-25T23:25:06.713Z,12.42
2018-08-25T23:27:41.040Z,12.44
2018-08-25T23:30:15.520Z,12.46
2018-08-25T23:32:50.744Z,12.42
2018-08-25T23:35:25.080Z,12.39
2018-08-25T23:37:59.762Z,12.40
2018-08-25T23:40:34.517Z,12.39
2018-08-25T23:43:09.308Z,12.39
2018-08-25T23:45:44.260Z,12.35
2018-08-25T23:48:19.020Z,12.37
2018-08-25T23:50:53.476Z,12.35
2018-08-25T23:53:28.492Z,12.35
2018-08-25T23:56:03.815Z,12.36
2018-08-25T23:58:38.275Z,12.36
